Manteno, Illinois
Current Conditions -  °F | °C
As of 6:35 PM on Sunday 21 Dec 2014 (Local Time) from KIKK Reporting Station
Overcast Overcast  
Wind Chill: 29°   Ceiling: 3400
Heat Index: 35°   Visibility: 10mi
Dew Point: 31°   Wind: 7mph
Humidity: 87%   Direction: 110°ESE
Pressure: 30.09"   Gusts: NA
Location:  41.25°N, 87.83°W
Report Text: KIKK 220035Z AUTO 11006KT 10SM SCT026 OVC034 01/00 A3009 RMK AO2 T00141005
Loading
Personal Weather Stations






























Interactive Weather Map New forecast layout! Learn more

10-Day Weather Forecast

Advertisements
Track Severe Weather on mobile